sensor_id;sensor_type;location;lat;lon;timestamp;temperature;humidity
17813;DHT22;9030;50.792;8.320;2023-06-22T00:00:47;17.80;99.90
17813;DHT22;9030;50.792;8.320;2023-06-22T00:03:13;17.80;99.90
17813;DHT22;9030;50.792;8.320;2023-06-22T00:05:40;17.70;99.90
17813;DHT22;9030;50.792;8.320;2023-06-22T00:08:07;17.80;99.90
17813;DHT22;9030;50.792;8.320;2023-06-22T00:10:35;17.90;99.90
17813;DHT22;9030;50.792;8.320;2023-06-22T00:13:01;17.90;99.90
17813;DHT22;9030;50.792;8.320;2023-06-22T00:15:28;17.90;99.90
17813;DHT22;9030;50.792;8.320;2023-06-22T00:17:55;17.90;99.90
17813;DHT22;9030;50.792;8.320;2023-06-22T00:20:22;17.90;99.90
17813;DHT22;9030;50.792;8.320;2023-06-22T00:22:53;17.90;99.90
17813;DHT22;9030;50.792;8.320;2023-06-22T00:25:19;18.00;99.90
17813;DHT22;9030;50.792;8.320;2023-06-22T00:27:48;17.90;99.90
17813;DHT22;9030;50.792;8.320;2023-06-22T00:30:15;17.90;99.90
17813;DHT22;9030;50.792;8.320;2023-06-22T00:32:42;18.00;99.90
17813;DHT22;9030;50.792;8.320;2023-06-22T00:35:09;18.00;99.90
17813;DHT22;9030;50.792;8.320;2023-06-22T00:37:37;18.00;99.90
17813;DHT22;9030;50.792;8.320;2023-06-22T00:40:08;18.10;99.90
17813;DHT22;9030;50.792;8.320;2023-06-22T00:42:37;18.10;99.90
17813;DHT22;9030;50.792;8.320;2023-06-22T00:45:06;18.10;99.90
17813;DHT22;9030;50.792;8.320;2023-06-22T00:47:34;18.20;99.90
17813;DHT22;9030;50.792;8.320;2023-06-22T00:50:01;18.20;99.90
17813;DHT22;9030;50.792;8.320;2023-06-22T00:52:29;18.20;99.90
17813;DHT22;9030;50.792;8.320;2023-06-22T00:54:59;18.20;99.90
17813;DHT22;9030;50.792;8.320;2023-06-22T00:57:27;18.20;99.90
17813;DHT22;9030;50.792;8.320;2023-06-22T00:59:54;18.20;99.90
17813;DHT22;9030;50.792;8.320;2023-06-22T01:02:22;18.20;99.90
17813;DHT22;9030;50.792;8.320;2023-06-22T01:04:49;18.20;99.90
17813;DHT22;9030;50.792;8.320;2023-06-22T01:07:20;18.30;99.90
17813;DHT22;9030;50.792;8.320;2023-06-22T01:09:53;18.30;99.90
17813;DHT22;9030;50.792;8.320;2023-06-22T01:12:24;18.30;99.90
17813;DHT22;9030;50.792;8.320;2023-06-22T01:14:57;18.30;99.90
17813;DHT22;9030;50.792;8.320;2023-06-22T01:17:26;18.20;99.90
17813;DHT22;9030;50.792;8.320;2023-06-22T01:19:55;18.20;99.90
17813;DHT22;9030;50.792;8.320;2023-06-22T01:22:24;18.20;99.90
17813;DHT22;9030;50.792;8.320;2023-06-22T01:25:00;18.20;99.90
17813;DHT22;9030;50.792;8.320;2023-06-22T01:27:40;18.10;99.90
17813;DHT22;9030;50.792;8.320;2023-06-22T01:30:13;18.20;99.90
17813;DHT22;9030;50.792;8.320;2023-06-22T01:32:43;18.20;99.90
17813;DHT22;9030;50.792;8.320;2023-06-22T01:35:10;18.20;99.90
17813;DHT22;9030;50.792;8.320;2023-06-22T01:37:38;18.20;99.90
17813;DHT22;9030;50.792;8.320;2023-06-22T01:40:07;18.10;99.90
17813;DHT22;9030;50.792;8.320;2023-06-22T01:42:35;18.20;99.90
17813;DHT22;9030;50.792;8.320;2023-06-22T01:45:03;18.10;99.90
17813;DHT22;9030;50.792;8.320;2023-06-22T01:47:31;18.10;99.90
17813;DHT22;9030;50.792;8.320;2023-06-22T01:49:59;18.10;99.90
17813;DHT22;9030;50.792;8.320;2023-06-22T01:52:25;18.10;99.90
17813;DHT22;9030;50.792;8.320;2023-06-22T01:54:52;18.20;99.90
17813;DHT22;9030;50.792;8.320;2023-06-22T01:57:19;18.20;99.90
17813;DHT22;9030;50.792;8.320;2023-06-22T01:59:51;18.20;99.90
17813;DHT22;9030;50.792;8.320;2023-06-22T02:02:20;18.20;99.90
17813;DHT22;9030;50.792;8.320;2023-06-22T02:04:56;18.20;99.90
17813;DHT22;9030;50.792;8.320;2023-06-22T02:07:24;18.20;99.90
17813;DHT22;9030;50.792;8.320;2023-06-22T02:09:55;18.20;99.90
17813;DHT22;9030;50.792;8.320;2023-06-22T02:12:24;18.20;99.90
17813;DHT22;9030;50.792;8.320;2023-06-22T02:14:53;18.20;99.90
17813;DHT22;9030;50.792;8.320;2023-06-22T02:17:20;18.20;99.90
17813;DHT22;9030;50.792;8.320;2023-06-22T02:19:47;18.10;99.90
17813;DHT22;9030;50.792;8.320;2023-06-22T02:22:15;18.10;99.90
17813;DHT22;9030;50.792;8.320;2023-06-22T02:24:42;18.20;99.90
17813;DHT22;9030;50.792;8.320;2023-06-22T02:27:08;18.20;99.90
17813;DHT22;9030;50.792;8.320;2023-06-22T02:29:37;18.30;99.90
17813;DHT22;9030;50.792;8.320;2023-06-22T02:32:04;18.20;99.90
17813;DHT22;9030;50.792;8.320;2023-06-22T02:34:31;18.30;99.90
17813;DHT22;9030;50.792;8.320;2023-06-22T02:36:59;18.20;99.90
17813;DHT22;9030;50.792;8.320;2023-06-22T02:39:29;18.20;99.90
17813;DHT22;9030;50.792;8.320;2023-06-22T02:41:56;18.20;99.90
17813;DHT22;9030;50.792;8.320;2023-06-22T02:44:22;18.20;99.90
17813;DHT22;9030;50.792;8.320;2023-06-22T02:46:49;18.20;99.90
17813;DHT22;9030;50.792;8.320;2023-06-22T02:49:16;18.20;99.90
17813;DHT22;9030;50.792;8.320;2023-06-22T02:51:45;18.10;99.90
17813;DHT22;9030;50.792;8.320;2023-06-22T02:54:12;18.20;99.90
17813;DHT22;9030;50.792;8.320;2023-06-22T02:56:40;18.20;99.90
17813;DHT22;9030;50.792;8.320;2023-06-22T02:59:09;18.30;99.90
17813;DHT22;9030;50.792;8.320;2023-06-22T03:01:36;18.40;99.90
17813;DHT22;9030;50.792;8.320;2023-06-22T03:04:05;18.40;99.90
17813;DHT22;9030;50.792;8.320;2023-06-22T03:06:32;18.30;99.90
17813;DHT22;9030;50.792;8.320;2023-06-22T03:09:00;18.30;99.90
17813;DHT22;9030;50.792;8.320;2023-06-22T03:11:28;18.30;99.90
17813;DHT22;9030;50.792;8.320;2023-06-22T03:13:56;18.30;99.90
17813;DHT22;9030;50.792;8.320;2023-06-22T03:16:23;18.40;99.90
17813;DHT22;9030;50.792;8.320;2023-06-22T03:18:50;18.40;99.90
17813;DHT22;9030;50.792;8.320;2023-06-22T03:21:16;18.40;99.90
17813;DHT22;9030;50.792;8.320;2023-06-22T03:23:43;18.30;99.90
17813;DHT22;9030;50.792;8.320;2023-06-22T03:26:10;18.30;99.90
17813;DHT22;9030;50.792;8.320;2023-06-22T03:28:37;18.20;99.90
17813;DHT22;9030;50.792;8.320;2023-06-22T03:31:05;18.30;99.90
17813;DHT22;9030;50.792;8.320;2023-06-22T03:33:33;18.10;99.90
17813;DHT22;9030;50.792;8.320;2023-06-22T03:35:59;18.10;99.90
17813;DHT22;9030;50.792;8.320;2023-06-22T03:38:26;18.10;99.90
17813;DHT22;9030;50.792;8.320;2023-06-22T03:40:53;18.10;99.90
17813;DHT22;9030;50.792;8.320;2023-06-22T03:43:19;18.10;99.90
17813;DHT22;9030;50.792;8.320;2023-06-22T03:45:46;18.00;99.90
17813;DHT22;9030;50.792;8.320;2023-06-22T03:48:14;18.00;99.90
17813;DHT22;9030;50.792;8.320;2023-06-22T03:50:41;18.00;99.90
17813;DHT22;9030;50.792;8.320;2023-06-22T03:53:09;18.10;99.90
17813;DHT22;9030;50.792;8.320;2023-06-22T03:55:36;18.10;99.90
17813;DHT22;9030;50.792;8.320;2023-06-22T03:58:02;18.10;99.90
17813;DHT22;9030;50.792;8.320;2023-06-22T04:00:31;18.10;99.90
17813;DHT22;9030;50.792;8.320;2023-06-22T04:02:57;18.10;99.90
17813;DHT22;9030;50.792;8.320;2023-06-22T04:05:25;18.10;99.90
17813;DHT22;9030;50.792;8.320;2023-06-22T04:07:52;18.10;99.90
17813;DHT22;9030;50.792;8.320;2023-06-22T04:10:19;18.20;99.90
17813;DHT22;9030;50.792;8.320;2023-06-22T04:12:46;18.20;99.90
17813;DHT22;9030;50.792;8.320;2023-06-22T04:15:13;18.30;99.90
17813;DHT22;9030;50.792;8.320;2023-06-22T04:17:40;18.30;99.90
17813;DHT22;9030;50.792;8.320;2023-06-22T04:20:08;18.30;99.90
17813;DHT22;9030;50.792;8.320;2023-06-22T04:22:36;18.30;99.90
17813;DHT22;9030;50.792;8.320;2023-06-22T04:25:03;18.30;99.90
17813;DHT22;9030;50.792;8.320;2023-06-22T04:27:30;18.30;99.90
17813;DHT22;9030;50.792;8.320;2023-06-22T04:29:56;18.40;99.90
17813;DHT22;9030;50.792;8.320;2023-06-22T04:32:25;18.50;99.90
17813;DHT22;9030;50.792;8.320;2023-06-22T04:34:52;18.50;99.90
17813;DHT22;9030;50.792;8.320;2023-06-22T04:37:18;18.50;99.90
17813;DHT22;9030;50.792;8.320;2023-06-22T04:39:50;18.50;99.90
17813;DHT22;9030;50.792;8.320;2023-06-22T04:42:16;18.50;99.90
17813;DHT22;9030;50.792;8.320;2023-06-22T04:44:43;18.50;99.90
17813;DHT22;9030;50.792;8.320;2023-06-22T04:47:10;18.60;99.90
17813;DHT22;9030;50.792;8.320;2023-06-22T04:49:37;18.60;99.90
17813;DHT22;9030;50.792;8.320;2023-06-22T04:52:07;18.70;99.90
17813;DHT22;9030;50.792;8.320;2023-06-22T04:54:35;18.70;99.90
17813;DHT22;9030;50.792;8.320;2023-06-22T04:57:05;18.80;99.90
17813;DHT22;9030;50.792;8.320;2023-06-22T04:59:35;18.80;99.90
17813;DHT22;9030;50.792;8.320;2023-06-22T05:02:05;18.70;99.90
17813;DHT22;9030;50.792;8.320;2023-06-22T05:04:32;18.80;99.90
17813;DHT22;9030;50.792;8.320;2023-06-22T05:07:01;18.80;99.90
17813;DHT22;9030;50.792;8.320;2023-06-22T05:09:29;18.80;99.90
17813;DHT22;9030;50.792;8.320;2023-06-22T05:11:56;18.90;99.90
17813;DHT22;9030;50.792;8.320;2023-06-22T05:14:24;18.90;99.90
17813;DHT22;9030;50.792;8.320;2023-06-22T05:16:50;18.90;99.90
17813;DHT22;9030;50.792;8.320;2023-06-22T05:19:18;19.00;99.90
17813;DHT22;9030;50.792;8.320;2023-06-22T05:21:45;19.10;99.90
17813;DHT22;9030;50.792;8.320;2023-06-22T05:24:11;19.10;99.90
17813;DHT22;9030;50.792;8.320;2023-06-22T05:26:38;19.20;99.90
17813;DHT22;9030;50.792;8.320;2023-06-22T05:29:05;19.40;99.90
17813;DHT22;9030;50.792;8.320;2023-06-22T05:31:33;19.50;99.90
17813;DHT22;9030;50.792;8.320;2023-06-22T05:34:00;19.60;99.90
17813;DHT22;9030;50.792;8.320;2023-06-22T05:36:26;19.70;99.90
17813;DHT22;9030;50.792;8.320;2023-06-22T05:38:53;19.90;99.90
17813;DHT22;9030;50.792;8.320;2023-06-22T05:41:20;19.90;99.90
17813;DHT22;9030;50.792;8.320;2023-06-22T05:43:46;19.90;99.90
17813;DHT22;9030;50.792;8.320;2023-06-22T05:46:13;19.90;99.90
17813;DHT22;9030;50.792;8.320;2023-06-22T05:48:41;20.00;99.90
17813;DHT22;9030;50.792;8.320;2023-06-22T05:51:08;20.20;99.90
17813;DHT22;9030;50.792;8.320;2023-06-22T05:53:34;20.30;99.90
17813;DHT22;9030;50.792;8.320;2023-06-22T05:56:01;20.50;99.90
17813;DHT22;9030;50.792;8.320;2023-06-22T05:58:28;20.60;99.90
17813;DHT22;9030;50.792;8.320;2023-06-22T06:00:55;20.60;99.90
17813;DHT22;9030;50.792;8.320;2023-06-22T06:03:21;20.90;99.90
17813;DHT22;9030;50.792;8.320;2023-06-22T06:05:49;21.10;99.90
17813;DHT22;9030;50.792;8.320;2023-06-22T06:08:16;21.50;99.90
17813;DHT22;9030;50.792;8.320;2023-06-22T06:10:43;21.70;99.90
17813;DHT22;9030;50.792;8.320;2023-06-22T06:13:09;21.90;99.90
17813;DHT22;9030;50.792;8.320;2023-06-22T06:15:36;22.00;99.90
17813;DHT22;9030;50.792;8.320;2023-06-22T06:18:04;22.10;99.90
17813;DHT22;9030;50.792;8.320;2023-06-22T06:20:32;22.10;99.90
17813;DHT22;9030;50.792;8.320;2023-06-22T06:23:00;22.00;99.90
17813;DHT22;9030;50.792;8.320;2023-06-22T06:25:27;22.10;99.90
17813;DHT22;9030;50.792;8.320;2023-06-22T06:27:53;22.30;99.90
17813;DHT22;9030;50.792;8.320;2023-06-22T06:30:21;22.40;99.90
17813;DHT22;9030;50.792;8.320;2023-06-22T06:32:49;22.50;99.90
17813;DHT22;9030;50.792;8.320;2023-06-22T06:35:16;22.10;99.90
17813;DHT22;9030;50.792;8.320;2023-06-22T06:37:44;22.10;99.90
17813;DHT22;9030;50.792;8.320;2023-06-22T06:40:13;22.30;99.90
17813;DHT22;9030;50.792;8.320;2023-06-22T06:42:41;22.50;99.90
17813;DHT22;9030;50.792;8.320;2023-06-22T06:45:10;22.80;99.90
17813;DHT22;9030;50.792;8.320;2023-06-22T06:47:37;23.20;99.90
17813;DHT22;9030;50.792;8.320;2023-06-22T06:50:05;23.20;99.90
17813;DHT22;9030;50.792;8.320;2023-06-22T06:52:32;23.20;99.90
17813;DHT22;9030;50.792;8.320;2023-06-22T06:54:59;23.30;99.90
17813;DHT22;9030;50.792;8.320;2023-06-22T06:57:27;23.20;99.90
17813;DHT22;9030;50.792;8.320;2023-06-22T06:59:54;23.50;99.90
17813;DHT22;9030;50.792;8.320;2023-06-22T07:02:21;23.80;99.90
17813;DHT22;9030;50.792;8.320;2023-06-22T07:04:48;23.90;99.90
17813;DHT22;9030;50.792;8.320;2023-06-22T07:07:15;24.10;99.90
17813;DHT22;9030;50.792;8.320;2023-06-22T07:09:42;24.20;99.90
17813;DHT22;9030;50.792;8.320;2023-06-22T07:12:09;24.10;99.90
17813;DHT22;9030;50.792;8.320;2023-06-22T07:14:37;24.30;99.90
17813;DHT22;9030;50.792;8.320;2023-06-22T07:17:04;24.40;99.90
17813;DHT22;9030;50.792;8.320;2023-06-22T07:19:32;24.70;99.90
17813;DHT22;9030;50.792;8.320;2023-06-22T07:21:59;24.40;99.90
17813;DHT22;9030;50.792;8.320;2023-06-22T07:24:25;24.30;99.90
17813;DHT22;9030;50.792;8.320;2023-06-22T07:26:52;24.30;99.90
17813;DHT22;9030;50.792;8.320;2023-06-22T07:29:19;24.30;99.90
17813;DHT22;9030;50.792;8.320;2023-06-22T07:31:48;24.20;99.90
17813;DHT22;9030;50.792;8.320;2023-06-22T07:34:15;23.90;99.90
17813;DHT22;9030;50.792;8.320;2023-06-22T07:36:42;24.20;99.90
17813;DHT22;9030;50.792;8.320;2023-06-22T07:39:09;24.30;99.90
17813;DHT22;9030;50.792;8.320;2023-06-22T07:41:38;24.70;99.90
17813;DHT22;9030;50.792;8.320;2023-06-22T07:44:05;24.70;99.90
17813;DHT22;9030;50.792;8.320;2023-06-22T07:46:32;24.60;99.90
17813;DHT22;9030;50.792;8.320;2023-06-22T07:49:00;24.50;99.90
17813;DHT22;9030;50.792;8.320;2023-06-22T07:51:27;24.60;99.90
17813;DHT22;9030;50.792;8.320;2023-06-22T07:53:53;24.40;99.90
17813;DHT22;9030;50.792;8.320;2023-06-22T07:56:20;24.50;99.90
17813;DHT22;9030;50.792;8.320;2023-06-22T07:58:47;24.70;99.90
17813;DHT22;9030;50.792;8.320;2023-06-22T08:01:14;24.90;99.90
17813;DHT22;9030;50.792;8.320;2023-06-22T08:03:41;24.90;99.90
17813;DHT22;9030;50.792;8.320;2023-06-22T08:06:09;25.00;99.90
17813;DHT22;9030;50.792;8.320;2023-06-22T08:08:36;25.40;99.90
17813;DHT22;9030;50.792;8.320;2023-06-22T08:11:03;25.60;99.90
17813;DHT22;9030;50.792;8.320;2023-06-22T08:13:30;25.70;99.90
17813;DHT22;9030;50.792;8.320;2023-06-22T08:15:57;26.30;99.90
17813;DHT22;9030;50.792;8.320;2023-06-22T08:18:23;26.30;99.90
17813;DHT22;9030;50.792;8.320;2023-06-22T08:20:50;26.20;99.90
17813;DHT22;9030;50.792;8.320;2023-06-22T08:23:18;26.20;99.90
17813;DHT22;9030;50.792;8.320;2023-06-22T08:25:45;26.00;99.90
17813;DHT22;9030;50.792;8.320;2023-06-22T08:28:13;26.30;99.90
17813;DHT22;9030;50.792;8.320;2023-06-22T08:30:40;26.30;99.90
17813;DHT22;9030;50.792;8.320;2023-06-22T08:33:07;26.60;99.90
17813;DHT22;9030;50.792;8.320;2023-06-22T08:35:33;26.50;99.90
17813;DHT22;9030;50.792;8.320;2023-06-22T08:38:00;26.80;99.90
17813;DHT22;9030;50.792;8.320;2023-06-22T08:40:28;26.90;99.90
17813;DHT22;9030;50.792;8.320;2023-06-22T08:42:55;27.20;99.90
17813;DHT22;9030;50.792;8.320;2023-06-22T08:45:22;27.00;99.90
17813;DHT22;9030;50.792;8.320;2023-06-22T08:47:49;27.20;99.90
17813;DHT22;9030;50.792;8.320;2023-06-22T08:50:15;27.20;99.90
17813;DHT22;9030;50.792;8.320;2023-06-22T08:52:42;27.70;99.90
17813;DHT22;9030;50.792;8.320;2023-06-22T08:55:09;27.70;99.90
17813;DHT22;9030;50.792;8.320;2023-06-22T08:57:37;27.70;99.90
17813;DHT22;9030;50.792;8.320;2023-06-22T09:00:06;28.20;99.90
17813;DHT22;9030;50.792;8.320;2023-06-22T09:02:40;28.00;99.90
17813;DHT22;9030;50.792;8.320;2023-06-22T09:05:07;26.80;99.90
17813;DHT22;9030;50.792;8.320;2023-06-22T09:07:34;26.30;99.90
17813;DHT22;9030;50.792;8.320;2023-06-22T09:10:01;26.30;99.90
17813;DHT22;9030;50.792;8.320;2023-06-22T09:12:29;26.50;99.90
17813;DHT22;9030;50.792;8.320;2023-06-22T09:14:59;26.70;99.90
17813;DHT22;9030;50.792;8.320;2023-06-22T09:17:26;27.10;99.90
17813;DHT22;9030;50.792;8.320;2023-06-22T09:19:53;27.50;99.90
17813;DHT22;9030;50.792;8.320;2023-06-22T09:22:20;27.30;99.90
17813;DHT22;9030;50.792;8.320;2023-06-22T09:24:47;27.30;99.90
17813;DHT22;9030;50.792;8.320;2023-06-22T09:27:13;27.60;99.90
17813;DHT22;9030;50.792;8.320;2023-06-22T09:29:40;26.40;99.90
17813;DHT22;9030;50.792;8.320;2023-06-22T09:32:08;26.90;99.90
17813;DHT22;9030;50.792;8.320;2023-06-22T09:34:35;27.20;99.90
17813;DHT22;9030;50.792;8.320;2023-06-22T09:37:02;27.40;99.90
17813;DHT22;9030;50.792;8.320;2023-06-22T09:39:29;27.40;99.90
17813;DHT22;9030;50.792;8.320;2023-06-22T09:41:57;27.40;99.90
17813;DHT22;9030;50.792;8.320;2023-06-22T09:44:24;27.60;99.90
17813;DHT22;9030;50.792;8.320;2023-06-22T09:46:51;27.50;99.90
17813;DHT22;9030;50.792;8.320;2023-06-22T09:49:19;27.10;99.90
17813;DHT22;9030;50.792;8.320;2023-06-22T09:51:46;27.70;99.90
17813;DHT22;9030;50.792;8.320;2023-06-22T09:54:12;27.70;99.90
17813;DHT22;9030;50.792;8.320;2023-06-22T09:56:39;27.50;99.90
17813;DHT22;9030;50.792;8.320;2023-06-22T09:59:06;27.40;99.90
17813;DHT22;9030;50.792;8.320;2023-06-22T10:01:33;27.40;99.90
17813;DHT22;9030;50.792;8.320;2023-06-22T10:03:59;27.40;99.90
17813;DHT22;9030;50.792;8.320;2023-06-22T10:06:27;27.70;99.90
17813;DHT22;9030;50.792;8.320;2023-06-22T10:08:54;27.40;99.90
17813;DHT22;9030;50.792;8.320;2023-06-22T10:11:21;27.40;99.90
17813;DHT22;9030;50.792;8.320;2023-06-22T10:13:52;27.60;99.90
17813;DHT22;9030;50.792;8.320;2023-06-22T10:16:19;28.20;99.90
17813;DHT22;9030;50.792;8.320;2023-06-22T10:18:45;28.10;99.90
17813;DHT22;9030;50.792;8.320;2023-06-22T10:21:13;28.10;99.90
17813;DHT22;9030;50.792;8.320;2023-06-22T10:23:40;27.90;99.90
17813;DHT22;9030;50.792;8.320;2023-06-22T10:26:07;28.00;99.90
17813;DHT22;9030;50.792;8.320;2023-06-22T10:28:34;27.90;99.90
17813;DHT22;9030;50.792;8.320;2023-06-22T10:31:01;28.10;99.90
17813;DHT22;9030;50.792;8.320;2023-06-22T10:33:27;28.10;99.90
17813;DHT22;9030;50.792;8.320;2023-06-22T10:35:54;28.10;99.90
17813;DHT22;9030;50.792;8.320;2023-06-22T10:38:21;28.10;99.90
17813;DHT22;9030;50.792;8.320;2023-06-22T10:40:49;27.70;99.90
17813;DHT22;9030;50.792;8.320;2023-06-22T10:43:15;27.50;99.90
17813;DHT22;9030;50.792;8.320;2023-06-22T10:45:42;27.50;99.90
17813;DHT22;9030;50.792;8.320;2023-06-22T10:48:09;27.60;99.90
17813;DHT22;9030;50.792;8.320;2023-06-22T10:50:36;27.80;99.90
17813;DHT22;9030;50.792;8.320;2023-06-22T10:53:02;27.50;99.90
17813;DHT22;9030;50.792;8.320;2023-06-22T10:55:29;27.30;99.90
17813;DHT22;9030;50.792;8.320;2023-06-22T10:57:57;27.30;99.90
17813;DHT22;9030;50.792;8.320;2023-06-22T11:00:23;27.00;99.90
17813;DHT22;9030;50.792;8.320;2023-06-22T11:02:50;26.90;99.90
17813;DHT22;9030;50.792;8.320;2023-06-22T11:05:17;26.90;99.90
17813;DHT22;9030;50.792;8.320;2023-06-22T11:07:44;26.90;99.90
17813;DHT22;9030;50.792;8.320;2023-06-22T11:10:11;27.50;99.90
17813;DHT22;9030;50.792;8.320;2023-06-22T11:12:38;28.10;99.90
17813;DHT22;9030;50.792;8.320;2023-06-22T11:15:08;28.00;99.90
17813;DHT22;9030;50.792;8.320;2023-06-22T11:17:34;27.80;99.90
17813;DHT22;9030;50.792;8.320;2023-06-22T11:20:01;27.60;99.90
17813;DHT22;9030;50.792;8.320;2023-06-22T11:22:30;27.40;99.90
17813;DHT22;9030;50.792;8.320;2023-06-22T11:24:59;27.30;99.90
17813;DHT22;9030;50.792;8.320;2023-06-22T11:27:25;27.10;99.90
17813;DHT22;9030;50.792;8.320;2023-06-22T11:29:52;26.70;99.90
17813;DHT22;9030;50.792;8.320;2023-06-22T11:32:20;26.70;99.90
17813;DHT22;9030;50.792;8.320;2023-06-22T11:34:47;27.10;99.90
17813;DHT22;9030;50.792;8.320;2023-06-22T11:37:14;27.80;99.90
17813;DHT22;9030;50.792;8.320;2023-06-22T11:39:41;27.60;99.90
17813;DHT22;9030;50.792;8.320;2023-06-22T11:42:08;27.60;99.90
17813;DHT22;9030;50.792;8.320;2023-06-22T11:44:34;27.50;99.90
17813;DHT22;9030;50.792;8.320;2023-06-22T11:47:01;27.50;99.90
17813;DHT22;9030;50.792;8.320;2023-06-22T11:49:31;27.60;99.90
17813;DHT22;9030;50.792;8.320;2023-06-22T11:51:57;27.80;99.90
17813;DHT22;9030;50.792;8.320;2023-06-22T11:54:24;28.50;99.90
17813;DHT22;9030;50.792;8.320;2023-06-22T11:56:51;28.80;99.90
17813;DHT22;9030;50.792;8.320;2023-06-22T11:59:17;28.70;99.90
17813;DHT22;9030;50.792;8.320;2023-06-22T12:01:44;28.50;99.90
17813;DHT22;9030;50.792;8.320;2023-06-22T12:04:11;28.40;99.90
17813;DHT22;9030;50.792;8.320;2023-06-22T12:06:39;29.10;99.90
17813;DHT22;9030;50.792;8.320;2023-06-22T12:09:07;29.50;99.90
17813;DHT22;9030;50.792;8.320;2023-06-22T12:11:34;29.90;99.90
17813;DHT22;9030;50.792;8.320;2023-06-22T12:14:00;30.10;99.90
17813;DHT22;9030;50.792;8.320;2023-06-22T12:16:27;30.40;99.90
17813;DHT22;9030;50.792;8.320;2023-06-22T12:18:54;30.60;99.90
17813;DHT22;9030;50.792;8.320;2023-06-22T12:21:21;30.90;99.90
17813;DHT22;9030;50.792;8.320;2023-06-22T12:23:49;31.10;99.90
17813;DHT22;9030;50.792;8.320;2023-06-22T12:26:16;31.30;99.90
17813;DHT22;9030;50.792;8.320;2023-06-22T12:28:43;31.50;99.90
17813;DHT22;9030;50.792;8.320;2023-06-22T12:31:09;31.50;99.90
17813;DHT22;9030;50.792;8.320;2023-06-22T12:33:36;31.10;99.90
17813;DHT22;9030;50.792;8.320;2023-06-22T12:36:03;30.10;99.90
17813;DHT22;9030;50.792;8.320;2023-06-22T12:38:30;29.80;99.90
17813;DHT22;9030;50.792;8.320;2023-06-22T12:40:58;29.60;99.90
17813;DHT22;9030;50.792;8.320;2023-06-22T12:43:25;29.40;99.90
17813;DHT22;9030;50.792;8.320;2023-06-22T12:45:51;30.00;99.90
17813;DHT22;9030;50.792;8.320;2023-06-22T12:48:18;30.70;99.90
17813;DHT22;9030;50.792;8.320;2023-06-22T12:50:45;30.90;99.90
17813;DHT22;9030;50.792;8.320;2023-06-22T12:53:13;30.20;99.90
17813;DHT22;9030;50.792;8.320;2023-06-22T12:55:39;30.30;99.90
17813;DHT22;9030;50.792;8.320;2023-06-22T12:58:07;30.70;99.90
17813;DHT22;9030;50.792;8.320;2023-06-22T13:00:34;31.50;99.90
17813;DHT22;9030;50.792;8.320;2023-06-22T13:03:01;32.10;99.90
17813;DHT22;9030;50.792;8.320;2023-06-22T13:05:27;32.30;99.90
17813;DHT22;9030;50.792;8.320;2023-06-22T13:07:54;31.90;99.90
17813;DHT22;9030;50.792;8.320;2023-06-22T13:10:20;32.10;99.90
17813;DHT22;9030;50.792;8.320;2023-06-22T13:12:47;31.80;99.90
17813;DHT22;9030;50.792;8.320;2023-06-22T13:15:15;32.50;99.90
17813;DHT22;9030;50.792;8.320;2023-06-22T13:17:42;32.80;99.90
17813;DHT22;9030;50.792;8.320;2023-06-22T13:20:09;32.90;99.90
17813;DHT22;9030;50.792;8.320;2023-06-22T13:22:36;33.50;99.90
17813;DHT22;9030;50.792;8.320;2023-06-22T13:25:06;33.60;99.90
17813;DHT22;9030;50.792;8.320;2023-06-22T13:27:37;34.30;99.90
17813;DHT22;9030;50.792;8.320;2023-06-22T13:30:04;34.40;99.90
17813;DHT22;9030;50.792;8.320;2023-06-22T13:32:32;32.70;99.90
17813;DHT22;9030;50.792;8.320;2023-06-22T13:34:59;33.10;99.90
17813;DHT22;9030;50.792;8.320;2023-06-22T13:37:26;34.00;99.90
17813;DHT22;9030;50.792;8.320;2023-06-22T13:39:53;33.80;99.90
17813;DHT22;9030;50.792;8.320;2023-06-22T13:42:21;33.60;99.90
17813;DHT22;9030;50.792;8.320;2023-06-22T13:44:48;32.90;99.90
17813;DHT22;9030;50.792;8.320;2023-06-22T13:47:14;32.30;99.90
17813;DHT22;9030;50.792;8.320;2023-06-22T13:49:42;31.70;99.90
17813;DHT22;9030;50.792;8.320;2023-06-22T13:52:09;31.20;99.90
17813;DHT22;9030;50.792;8.320;2023-06-22T13:54:38;31.70;99.90
17813;DHT22;9030;50.792;8.320;2023-06-22T13:57:05;31.40;99.90
17813;DHT22;9030;50.792;8.320;2023-06-22T13:59:32;30.90;99.90
17813;DHT22;9030;50.792;8.320;2023-06-22T14:01:58;29.50;99.90
17813;DHT22;9030;50.792;8.320;2023-06-22T14:04:25;29.10;99.90
17813;DHT22;9030;50.792;8.320;2023-06-22T14:06:53;29.00;99.90
17813;DHT22;9030;50.792;8.320;2023-06-22T14:09:21;28.60;99.90
17813;DHT22;9030;50.792;8.320;2023-06-22T14:11:47;28.60;99.90
17813;DHT22;9030;50.792;8.320;2023-06-22T14:14:14;28.70;99.90
17813;DHT22;9030;50.792;8.320;2023-06-22T14:16:41;29.00;99.90
17813;DHT22;9030;50.792;8.320;2023-06-22T14:19:07;29.50;99.90
17813;DHT22;9030;50.792;8.320;2023-06-22T14:21:34;29.50;99.90
17813;DHT22;9030;50.792;8.320;2023-06-22T14:24:02;29.00;99.90
17813;DHT22;9030;50.792;8.320;2023-06-22T14:26:29;28.50;99.90
17813;DHT22;9030;50.792;8.320;2023-06-22T14:28:55;27.80;99.90
17813;DHT22;9030;50.792;8.320;2023-06-22T14:31:22;27.70;99.90
17813;DHT22;9030;50.792;8.320;2023-06-22T14:33:50;27.50;99.90
17813;DHT22;9030;50.792;8.320;2023-06-22T14:36:16;27.30;99.90
17813;DHT22;9030;50.792;8.320;2023-06-22T14:38:43;27.20;99.90
17813;DHT22;9030;50.792;8.320;2023-06-22T14:41:12;27.10;99.90
17813;DHT22;9030;50.792;8.320;2023-06-22T14:43:44;27.20;99.90
17813;DHT22;9030;50.792;8.320;2023-06-22T14:46:11;27.00;99.90
17813;DHT22;9030;50.792;8.320;2023-06-22T14:48:37;26.60;99.90
17813;DHT22;9030;50.792;8.320;2023-06-22T14:51:04;26.40;99.90
17813;DHT22;9030;50.792;8.320;2023-06-22T14:53:31;26.30;99.90
17813;DHT22;9030;50.792;8.320;2023-06-22T14:55:57;26.30;99.90
17813;DHT22;9030;50.792;8.320;2023-06-22T14:58:28;26.20;99.90
17813;DHT22;9030;50.792;8.320;2023-06-22T15:00:55;26.20;99.90
17813;DHT22;9030;50.792;8.320;2023-06-22T15:03:22;26.30;99.90
17813;DHT22;9030;50.792;8.320;2023-06-22T15:05:52;26.20;99.90
17813;DHT22;9030;50.792;8.320;2023-06-22T15:08:20;26.30;99.90
17813;DHT22;9030;50.792;8.320;2023-06-22T15:10:47;26.40;99.90
17813;DHT22;9030;50.792;8.320;2023-06-22T15:13:13;26.30;99.90
17813;DHT22;9030;50.792;8.320;2023-06-22T15:15:42;26.10;99.90
17813;DHT22;9030;50.792;8.320;2023-06-22T15:18:08;25.90;99.90
17813;DHT22;9030;50.792;8.320;2023-06-22T15:20:35;25.70;99.90
17813;DHT22;9030;50.792;8.320;2023-06-22T15:23:01;25.40;99.90
17813;DHT22;9030;50.792;8.320;2023-06-22T15:25:28;25.10;99.90
17813;DHT22;9030;50.792;8.320;2023-06-22T15:27:54;24.50;99.90
17813;DHT22;9030;50.792;8.320;2023-06-22T15:30:21;23.70;99.90
17813;DHT22;9030;50.792;8.320;2023-06-22T15:32:49;23.30;99.90
17813;DHT22;9030;50.792;8.320;2023-06-22T15:35:16;23.10;99.90
17813;DHT22;9030;50.792;8.320;2023-06-22T15:37:43;22.90;99.90
17813;DHT22;9030;50.792;8.320;2023-06-22T15:40:11;22.70;99.90
17813;DHT22;9030;50.792;8.320;2023-06-22T15:42:37;22.70;99.90
17813;DHT22;9030;50.792;8.320;2023-06-22T15:45:05;22.60;99.90